VHHH/HKG METAR and TAF weather

Enter ICAO airport designator
Station Type Date Time Source
VHHH METAR 2019/02/22 23:00 UTC NOAA

VHHH 222300Z 09021KT 9000 FEW013 SCT030 19/16 Q1015 NOSIG


Station Type Date Time Source
VHHH Decoded METAR 2019/02/22 23:00 UTC NOAA

Hong Kong Inter-National Airport, Hong Kong (VHHH) 22-20N 114-11E 24M
Feb 22, 2019 - 06:00 PM EST / 2019.02.22 2300 UTC
Wind: from the E (090 degrees) at 24 MPH (21 KT):0
Visibility: 5 mile(s):0
Sky conditions: partly cloudy
Temperature: 66 F (19 C)
Dew Point: 60 F (16 C)
Relative Humidity: 82%
Pressure (altimeter): 29.97 in. Hg (1015 hPa)
ob: VHHH 222300Z 09021KT 9000 FEW013 SCT030 19/16 Q1015 NOSIG
cycle: 23

Station Type Date Time Source
VHHH TAF 2019/02/22 18:21 UTC NOAA

TAF TAF VHHH 221700Z 2218/2324 06010KT 7000 FEW015 SCT025 TX21/2306Z TN18/2223Z TN16/2323Z
TEMPO 2300/2309 08015G25KT
TEMPO 2303/2312 3000 SHRA FEW012CB SCT020
BECMG 2312/2314 36010KT
TEMPO 2312/2324 3000 BR -RA


Example: see airport list